AFA8423 YBHM-YBBN
Flight info
| Callsign | AFA8423 |
|---|---|
| Flight time | 1h 32m |
| Altitude | 31000 |
| Route | OVRON B462 MK V153 MUNAR/N0448F370 Y61 RUROX Y177 BN |
| Aircraft | A320/M-SDE3FGHIRWY/LB1 |
Departure
| Time | 2026-04-16 06:29 |
|---|---|
| Airport | Hamilton Island Airport (YBHM) |
Arrival
| Time | 2026-04-16 08:01 |
|---|---|
| Airport | Brisbane International Airport (YBBN) |
| Time | Latitude | Longitude | Altitude | Speed | Heading |
|---|---|---|---|---|---|
| 2026-04-16 06:25 | -20.35253 | 148.94992 | 33 ft | 0 kts | 143° |
| 2026-04-16 06:26 | -20.35255 | 148.94994 | 33 ft | 0 kts | 143° |
| 2026-04-16 06:26 | -20.35263 | 148.94998 | 33 ft | 1 kts | 148° |
| 2026-04-16 06:26 | -20.35279 | 148.94998 | 33 ft | 3 kts | 200° |
| 2026-04-16 06:27 | -20.35280 | 148.94966 | 32 ft | 7 kts | 298° |
| 2026-04-16 06:27 | -20.35249 | 148.94905 | 30 ft | 11 kts | 297° |
| 2026-04-16 06:27 | -20.35247 | 148.94800 | 24 ft | 17 kts | 279° |
| 2026-04-16 06:27 | -20.35155 | 148.94705 | 20 ft | 19 kts | 344° |
| 2026-04-16 06:28 | -20.35136 | 148.94665 | 19 ft | 8 kts | 115° |
| 2026-04-16 06:28 | -20.35150 | 148.94682 | 19 ft | 6 kts | 135° |
| 2026-04-16 06:28 | -20.35397 | 148.94893 | 28 ft | 81 kts | 140° |
| 2026-04-16 06:28 | -20.36020 | 148.95399 | 29 ft | 140 kts | 142° |
| 2026-04-16 06:29 | -20.36802 | 148.96017 | 704 ft | 131 kts | 142° |
| 2026-04-16 06:29 | -20.37530 | 148.96487 | 1336 ft | 126 kts | 147° |
| 2026-04-16 06:29 | -20.38332 | 148.96974 | 1752 ft | 139 kts | 141° |
| 2026-04-16 06:29 | -20.39153 | 148.97597 | 2200 ft | 153 kts | 140° |
| 2026-04-16 06:30 | -20.40044 | 148.98317 | 2648 ft | 169 kts | 139° |
| 2026-04-16 06:30 | -20.41021 | 148.99132 | 3090 ft | 188 kts | 139° |
| 2026-04-16 06:30 | -20.42139 | 148.99960 | 3517 ft | 209 kts | 153° |
| 2026-04-16 06:30 | -20.43613 | 149.00420 | 3907 ft | 234 kts | 165° |
| 2026-04-16 06:31 | -20.45303 | 149.00774 | 4317 ft | 258 kts | 167° |
| 2026-04-16 06:31 | -20.47158 | 149.01161 | 4747 ft | 281 kts | 167° |
| 2026-04-16 06:31 | -20.49153 | 149.01607 | 5166 ft | 303 kts | 167° |
| 2026-04-16 06:31 | -20.51271 | 149.02101 | 5579 ft | 324 kts | 166° |
| 2026-04-16 06:32 | -20.53544 | 149.02650 | 5995 ft | 343 kts | 166° |
| 2026-04-16 06:32 | -20.55931 | 149.03236 | 6408 ft | 361 kts | 166° |
| 2026-04-16 06:32 | -20.58455 | 149.03862 | 6825 ft | 377 kts | 166° |
| 2026-04-16 06:32 | -20.61054 | 149.04512 | 7236 ft | 390 kts | 166° |
| 2026-04-16 06:33 | -20.63761 | 149.05191 | 7650 ft | 403 kts | 166° |
| 2026-04-16 06:33 | -20.66496 | 149.05873 | 8227 ft | 398 kts | 167° |
| 2026-04-16 06:33 | -20.69099 | 149.06514 | 8623 ft | 364 kts | 167° |
| 2026-04-16 06:33 | -20.71492 | 149.07075 | 8958 ft | 358 kts | 168° |
| 2026-04-16 06:34 | -20.73991 | 149.07602 | 9374 ft | 371 kts | 169° |
| 2026-04-16 06:34 | -20.76591 | 149.08083 | 9834 ft | 383 kts | 171° |
| 2026-04-16 06:34 | -20.79241 | 149.08501 | 10318 ft | 392 kts | 172° |
| 2026-04-16 06:34 | -20.81980 | 149.08856 | 10840 ft | 399 kts | 174° |
| 2026-04-16 06:35 | -20.84792 | 149.09145 | 11398 ft | 404 kts | 175° |
| 2026-04-16 06:35 | -20.87597 | 149.09352 | 11964 ft | 408 kts | 177° |
| 2026-04-16 06:35 | -20.90432 | 149.09482 | 12550 ft | 411 kts | 179° |
| 2026-04-16 06:35 | -20.93340 | 149.09532 | 13162 ft | 413 kts | 180° |
| 2026-04-16 06:36 | -20.96191 | 149.09500 | 13768 ft | 415 kts | 182° |
| 2026-04-16 06:36 | -20.99090 | 149.09384 | 14390 ft | 415 kts | 184° |
| 2026-04-16 06:36 | -21.01977 | 149.09184 | 15021 ft | 415 kts | 186° |
| 2026-04-16 06:36 | -21.04836 | 149.08903 | 15651 ft | 415 kts | 187° |
| 2026-04-16 06:37 | -21.07735 | 149.08533 | 16295 ft | 414 kts | 189° |
| 2026-04-16 06:37 | -21.10559 | 149.08079 | 16922 ft | 413 kts | 191° |
| 2026-04-16 06:37 | -21.13376 | 149.07536 | 17553 ft | 411 kts | 193° |
| 2026-04-16 06:37 | -21.16180 | 149.06891 | 18193 ft | 409 kts | 195° |
| 2026-04-16 06:38 | -21.18916 | 149.06151 | 18826 ft | 407 kts | 198° |
| 2026-04-16 06:38 | -21.21646 | 149.05293 | 19452 ft | 405 kts | 200° |
| 2026-04-16 06:38 | -21.24298 | 149.04336 | 20068 ft | 403 kts | 202° |
| 2026-04-16 06:38 | -21.26906 | 149.03252 | 20626 ft | 401 kts | 207° |
| 2026-04-16 06:39 | -21.29256 | 149.01677 | 20969 ft | 401 kts | 223° |
| 2026-04-16 06:39 | -21.31366 | 148.99672 | 21329 ft | 406 kts | 221° |
| 2026-04-16 06:39 | -21.33855 | 148.98187 | 21650 ft | 419 kts | 200° |
| 2026-04-16 06:39 | -21.36766 | 148.97803 | 21998 ft | 432 kts | 179° |
| 2026-04-16 06:40 | -21.39708 | 148.98614 | 22345 ft | 443 kts | 157° |
| 2026-04-16 06:40 | -21.42245 | 149.00552 | 22705 ft | 453 kts | 135° |
| 2026-04-16 06:40 | -21.44009 | 149.03371 | 23061 ft | 460 kts | 114° |
| 2026-04-16 06:40 | -21.44791 | 149.06685 | 23420 ft | 464 kts | 95° |
| 2026-04-16 06:41 | -21.44987 | 149.10118 | 23784 ft | 467 kts | 94° |
| 2026-04-16 06:41 | -21.45374 | 149.13612 | 24146 ft | 470 kts | 100° |
| 2026-04-16 06:41 | -21.46099 | 149.17027 | 24508 ft | 472 kts | 106° |
| 2026-04-16 06:41 | -21.47069 | 149.20389 | 24873 ft | 474 kts | 109° |
| 2026-04-16 06:42 | -21.48149 | 149.23726 | 25236 ft | 476 kts | 111° |
| 2026-04-16 06:42 | -21.49611 | 149.26910 | 25572 ft | 475 kts | 128° |
| 2026-04-16 06:42 | -21.51947 | 149.29387 | 25938 ft | 469 kts | 149° |
| 2026-04-16 06:42 | -21.54847 | 149.30916 | 26316 ft | 462 kts | 162° |
| 2026-04-16 06:43 | -21.57837 | 149.32095 | 26676 ft | 463 kts | 164° |
| 2026-04-16 06:43 | -21.60877 | 149.33266 | 27039 ft | 464 kts | 164° |
| 2026-04-16 06:43 | -21.63923 | 149.34464 | 27404 ft | 466 kts | 163° |
| 2026-04-16 06:43 | -21.66983 | 149.35695 | 27769 ft | 467 kts | 163° |
| 2026-04-16 06:44 | -21.69991 | 149.36926 | 28129 ft | 467 kts | 163° |
| 2026-04-16 06:44 | -21.73037 | 149.38190 | 28493 ft | 468 kts | 163° |
| 2026-04-16 06:44 | -21.76079 | 149.39459 | 28876 ft | 469 kts | 163° |
| 2026-04-16 06:44 | -21.79122 | 149.40736 | 29265 ft | 469 kts | 163° |
| 2026-04-16 06:45 | -21.82154 | 149.42009 | 29651 ft | 469 kts | 163° |
| 2026-04-16 06:45 | -21.85204 | 149.43292 | 30041 ft | 470 kts | 163° |
| 2026-04-16 06:45 | -21.88248 | 149.44574 | 30429 ft | 470 kts | 163° |
| 2026-04-16 06:45 | -21.91299 | 149.45862 | 30820 ft | 470 kts | 163° |
| 2026-04-16 06:46 | -21.94342 | 149.47144 | 31037 ft | 474 kts | 163° |
| 2026-04-16 06:46 | -21.97456 | 149.48454 | 31039 ft | 483 kts | 163° |
| 2026-04-16 06:46 | -22.03814 | 149.51134 | 31036 ft | 498 kts | 163° |
| 2026-04-16 06:47 | -22.10346 | 149.53894 | 31034 ft | 509 kts | 163° |
| 2026-04-16 06:47 | -22.16983 | 149.56703 | 31075 ft | 516 kts | 163° |
| 2026-04-16 06:48 | -22.20359 | 149.58133 | 31303 ft | 514 kts | 163° |
| 2026-04-16 06:48 | -22.23654 | 149.59531 | 31631 ft | 510 kts | 163° |
| 2026-04-16 06:48 | -22.26962 | 149.60936 | 31966 ft | 507 kts | 163° |
| 2026-04-16 06:48 | -22.30250 | 149.62335 | 32277 ft | 505 kts | 163° |
| 2026-04-16 06:49 | -22.33507 | 149.63718 | 32596 ft | 502 kts | 163° |
| 2026-04-16 06:49 | -22.36748 | 149.65085 | 32935 ft | 500 kts | 163° |
| 2026-04-16 06:49 | -22.39996 | 149.66440 | 33261 ft | 497 kts | 163° |
| 2026-04-16 06:49 | -22.43182 | 149.67747 | 33588 ft | 495 kts | 164° |
| 2026-04-16 06:50 | -22.46405 | 149.69045 | 33923 ft | 492 kts | 165° |
| 2026-04-16 06:50 | -22.49648 | 149.70319 | 34254 ft | 489 kts | 165° |
| 2026-04-16 06:50 | -22.52833 | 149.71535 | 34597 ft | 486 kts | 166° |
| 2026-04-16 06:50 | -22.55998 | 149.72696 | 34937 ft | 482 kts | 167° |
| 2026-04-16 06:51 | -22.59208 | 149.73814 | 35285 ft | 478 kts | 167° |
| 2026-04-16 06:51 | -22.62356 | 149.74847 | 35629 ft | 474 kts | 169° |
| 2026-04-16 06:51 | -22.65550 | 149.75818 | 35978 ft | 470 kts | 170° |
| 2026-04-16 06:51 | -22.68693 | 149.76691 | 36321 ft | 466 kts | 172° |
| 2026-04-16 06:52 | -22.71841 | 149.77478 | 36661 ft | 462 kts | 173° |
| 2026-04-16 06:52 | -22.74972 | 149.78166 | 36990 ft | 457 kts | 175° |
| 2026-04-16 06:52 | -22.78088 | 149.78749 | 37317 ft | 453 kts | 176° |
| 2026-04-16 06:52 | -22.81224 | 149.79225 | 37643 ft | 448 kts | 179° |
| 2026-04-16 06:53 | -22.84303 | 149.79576 | 37959 ft | 443 kts | 181° |
| 2026-04-16 06:53 | -22.87358 | 149.79805 | 38267 ft | 439 kts | 183° |
| 2026-04-16 06:53 | -22.90384 | 149.79907 | 38599 ft | 434 kts | 185° |
| 2026-04-16 06:53 | -22.93405 | 149.79880 | 38930 ft | 429 kts | 187° |
| 2026-04-16 06:54 | -22.96383 | 149.79721 | 39239 ft | 424 kts | 190° |
| 2026-04-16 06:54 | -22.99295 | 149.79431 | 39538 ft | 419 kts | 193° |
| 2026-04-16 06:54 | -23.02158 | 149.79007 | 39817 ft | 414 kts | 195° |
| 2026-04-16 06:54 | -23.04967 | 149.78447 | 40082 ft | 409 kts | 198° |
| 2026-04-16 06:55 | -23.07743 | 149.77743 | 40332 ft | 405 kts | 201° |
| 2026-04-16 06:55 | -23.10451 | 149.76900 | 40563 ft | 400 kts | 204° |
| 2026-04-16 06:55 | -23.13064 | 149.75917 | 40778 ft | 395 kts | 206° |
| 2026-04-16 06:55 | -23.15577 | 149.74800 | 40979 ft | 390 kts | 210° |
| 2026-04-16 06:56 | -23.18005 | 149.73535 | 41153 ft | 386 kts | 213° |
| 2026-04-16 06:56 | -23.20353 | 149.72113 | 41336 ft | 381 kts | 217° |
| 2026-04-16 06:56 | -23.22558 | 149.70569 | 41496 ft | 377 kts | 220° |
| 2026-04-16 06:56 | -23.24665 | 149.68864 | 41647 ft | 372 kts | 224° |
| 2026-04-16 06:57 | -23.26616 | 149.67042 | 41789 ft | 368 kts | 228° |
| 2026-04-16 06:57 | -23.28427 | 149.65093 | 41886 ft | 365 kts | 232° |
| 2026-04-16 06:57 | -23.31608 | 149.60803 | 41755 ft | 365 kts | 240° |
| 2026-04-16 06:58 | -23.34137 | 149.56064 | 41658 ft | 365 kts | 248° |
| 2026-04-16 06:58 | -23.35957 | 149.50944 | 41694 ft | 362 kts | 256° |
| 2026-04-16 06:59 | -23.36989 | 149.45593 | 41793 ft | 360 kts | 265° |
| 2026-04-16 06:59 | -23.37188 | 149.40228 | 41938 ft | 357 kts | 273° |
| 2026-04-16 07:00 | -23.36542 | 149.34909 | 42071 ft | 355 kts | 282° |
| 2026-04-16 07:01 | -23.34041 | 149.27278 | 42095 ft | 358 kts | 290° |
| 2026-04-16 07:01 | -23.32290 | 149.22231 | 42100 ft | 359 kts | 285° |
| 2026-04-16 07:02 | -23.31417 | 149.16895 | 42108 ft | 359 kts | 271° |
| 2026-04-16 07:02 | -23.31993 | 149.11533 | 42107 ft | 362 kts | 256° |
| 2026-04-16 07:03 | -23.34107 | 149.06549 | 42110 ft | 369 kts | 239° |
| 2026-04-16 07:03 | -23.37717 | 149.02542 | 42117 ft | 380 kts | 219° |
| 2026-04-16 07:04 | -23.42596 | 149.00114 | 42108 ft | 394 kts | 199° |
| 2026-04-16 07:04 | -23.45330 | 148.99644 | 42114 ft | 401 kts | 188° |
| 2026-04-16 07:04 | -23.48147 | 148.99704 | 42115 ft | 409 kts | 179° |
| 2026-04-16 07:05 | -23.53715 | 149.01302 | 42113 ft | 421 kts | 163° |
| 2026-04-16 07:05 | -23.59020 | 149.04152 | 42113 ft | 429 kts | 152° |
| 2026-04-16 07:06 | -23.63634 | 149.08350 | 42112 ft | 439 kts | 134° |
| 2026-04-16 07:06 | -23.67121 | 149.13875 | 42119 ft | 444 kts | 123° |
| 2026-04-16 07:07 | -23.70310 | 149.19623 | 42120 ft | 445 kts | 124° |
| 2026-04-16 07:07 | -23.73573 | 149.25385 | 42115 ft | 446 kts | 125° |
| 2026-04-16 07:08 | -23.76851 | 149.31105 | 42128 ft | 448 kts | 125° |
| 2026-04-16 07:08 | -23.80152 | 149.36853 | 42121 ft | 449 kts | 125° |
| 2026-04-16 07:09 | -23.83484 | 149.42653 | 42121 ft | 451 kts | 125° |
| 2026-04-16 07:09 | -23.86806 | 149.48444 | 42124 ft | 452 kts | 125° |
| 2026-04-16 07:10 | -23.90150 | 149.54280 | 42121 ft | 454 kts | 125° |
| 2026-04-16 07:10 | -23.93508 | 149.60144 | 42121 ft | 456 kts | 125° |
| 2026-04-16 07:11 | -23.96869 | 149.66022 | 42129 ft | 457 kts | 124° |
| 2026-04-16 07:11 | -24.00239 | 149.71924 | 42127 ft | 458 kts | 124° |
| 2026-04-16 07:12 | -24.03603 | 149.77821 | 42129 ft | 459 kts | 124° |
| 2026-04-16 07:12 | -24.06992 | 149.83766 | 42133 ft | 460 kts | 124° |
| 2026-04-16 07:13 | -24.10357 | 149.89688 | 42137 ft | 461 kts | 124° |
| 2026-04-16 07:13 | -24.13738 | 149.95634 | 42141 ft | 461 kts | 124° |
| 2026-04-16 07:14 | -24.17127 | 150.01605 | 42094 ft | 464 kts | 124° |
| 2026-04-16 07:14 | -24.18851 | 150.04639 | 41495 ft | 476 kts | 125° |
| 2026-04-16 07:14 | -24.20607 | 150.07730 | 41327 ft | 479 kts | 125° |
| 2026-04-16 07:15 | -24.24129 | 150.13940 | 41329 ft | 480 kts | 124° |
| 2026-04-16 07:15 | -24.27630 | 150.20126 | 41334 ft | 482 kts | 124° |
| 2026-04-16 07:16 | -24.31162 | 150.26381 | 41339 ft | 483 kts | 124° |
| 2026-04-16 07:16 | -24.34709 | 150.32667 | 41343 ft | 484 kts | 125° |
| 2026-04-16 07:17 | -24.38243 | 150.38940 | 41348 ft | 486 kts | 125° |
| 2026-04-16 07:17 | -24.41767 | 150.45209 | 41353 ft | 487 kts | 125° |
| 2026-04-16 07:18 | -24.45353 | 150.51552 | 41353 ft | 487 kts | 129° |
| 2026-04-16 07:18 | -24.49884 | 150.56931 | 41355 ft | 478 kts | 144° |
| 2026-04-16 07:19 | -24.55126 | 150.61311 | 41360 ft | 473 kts | 152° |
| 2026-04-16 07:19 | -24.60672 | 150.65269 | 41364 ft | 474 kts | 152° |
| 2026-04-16 07:20 | -24.66190 | 150.69229 | 41367 ft | 474 kts | 152° |
| 2026-04-16 07:20 | -24.71650 | 150.73198 | 41372 ft | 474 kts | 152° |
| 2026-04-16 07:21 | -24.77164 | 150.77226 | 41376 ft | 474 kts | 152° |
| 2026-04-16 07:21 | -24.82662 | 150.81251 | 41381 ft | 475 kts | 152° |
| 2026-04-16 07:22 | -24.88162 | 150.85286 | 41385 ft | 475 kts | 152° |
| 2026-04-16 07:22 | -24.93650 | 150.89311 | 41389 ft | 475 kts | 152° |
| 2026-04-16 07:23 | -24.99170 | 150.93367 | 41395 ft | 475 kts | 152° |
| 2026-04-16 07:23 | -25.04659 | 150.97407 | 41400 ft | 475 kts | 152° |
| 2026-04-16 07:24 | -25.10136 | 151.01439 | 41404 ft | 475 kts | 152° |
| 2026-04-16 07:24 | -25.15659 | 151.05508 | 41408 ft | 476 kts | 152° |
| 2026-04-16 07:25 | -25.21136 | 151.09551 | 41412 ft | 476 kts | 152° |
| 2026-04-16 07:25 | -25.26639 | 151.13617 | 41416 ft | 476 kts | 152° |
| 2026-04-16 07:26 | -25.32140 | 151.17686 | 41421 ft | 477 kts | 153° |
| 2026-04-16 07:26 | -25.37642 | 151.21759 | 41424 ft | 477 kts | 153° |
| 2026-04-16 07:27 | -25.43185 | 151.25868 | 41430 ft | 478 kts | 153° |
| 2026-04-16 07:27 | -25.48692 | 151.29956 | 41434 ft | 478 kts | 153° |
| 2026-04-16 07:28 | -25.54198 | 151.34047 | 41439 ft | 478 kts | 153° |
| 2026-04-16 07:28 | -25.59738 | 151.38170 | 41443 ft | 479 kts | 153° |
| 2026-04-16 07:29 | -25.65271 | 151.42293 | 41448 ft | 479 kts | 153° |
| 2026-04-16 07:29 | -25.70806 | 151.46420 | 41452 ft | 480 kts | 153° |
| 2026-04-16 07:30 | -25.76185 | 151.50832 | 41455 ft | 486 kts | 146° |
| 2026-04-16 07:30 | -25.81252 | 151.55808 | 41462 ft | 488 kts | 144° |
| 2026-04-16 07:31 | -25.86297 | 151.60854 | 41466 ft | 489 kts | 144° |
| 2026-04-16 07:31 | -25.91359 | 151.65906 | 41467 ft | 489 kts | 144° |
| 2026-04-16 07:32 | -25.96444 | 151.70970 | 41470 ft | 489 kts | 144° |
| 2026-04-16 07:32 | -26.01491 | 151.76001 | 41474 ft | 488 kts | 144° |
| 2026-04-16 07:33 | -26.06527 | 151.81029 | 41473 ft | 488 kts | 144° |
| 2026-04-16 07:33 | -26.11590 | 151.86084 | 41471 ft | 488 kts | 144° |
| 2026-04-16 07:34 | -26.16650 | 151.91145 | 41475 ft | 488 kts | 144° |
| 2026-04-16 07:34 | -26.21692 | 151.96194 | 41475 ft | 488 kts | 144° |
| 2026-04-16 07:35 | -26.26718 | 152.01236 | 41477 ft | 488 kts | 144° |
| 2026-04-16 07:35 | -26.31759 | 152.06294 | 41475 ft | 488 kts | 144° |
| 2026-04-16 07:36 | -26.36802 | 152.11365 | 41477 ft | 489 kts | 144° |
| 2026-04-16 07:36 | -26.41853 | 152.16449 | 41476 ft | 489 kts | 144° |
| 2026-04-16 07:37 | -26.46899 | 152.21536 | 41475 ft | 489 kts | 144° |
| 2026-04-16 07:37 | -26.51961 | 152.26643 | 41472 ft | 490 kts | 144° |
| 2026-04-16 07:38 | -26.56991 | 152.31728 | 41471 ft | 490 kts | 144° |
| 2026-04-16 07:38 | -26.62061 | 152.36858 | 41472 ft | 491 kts | 144° |
| 2026-04-16 07:39 | -26.67074 | 152.41977 | 41467 ft | 492 kts | 144° |
| 2026-04-16 07:39 | -26.69622 | 152.44606 | 41344 ft | 495 kts | 144° |
| 2026-04-16 07:39 | -26.72154 | 152.47226 | 41131 ft | 499 kts | 144° |
| 2026-04-16 07:39 | -26.74699 | 152.49855 | 41004 ft | 501 kts | 144° |
| 2026-04-16 07:40 | -26.77241 | 152.52489 | 40973 ft | 502 kts | 144° |
| 2026-04-16 07:40 | -26.82373 | 152.57806 | 41016 ft | 502 kts | 144° |
| 2026-04-16 07:41 | -26.87475 | 152.63095 | 41053 ft | 501 kts | 144° |
| 2026-04-16 07:41 | -26.92622 | 152.68381 | 41058 ft | 499 kts | 146° |
| 2026-04-16 07:41 | -26.95406 | 152.70670 | 40988 ft | 488 kts | 158° |
| 2026-04-16 07:42 | -26.98402 | 152.72369 | 40939 ft | 480 kts | 164° |
| 2026-04-16 07:42 | -27.04478 | 152.75343 | 40836 ft | 480 kts | 165° |
| 2026-04-16 07:43 | -27.10643 | 152.78380 | 40744 ft | 482 kts | 164° |
| 2026-04-16 07:43 | -27.16750 | 152.81451 | 40681 ft | 484 kts | 164° |
| 2026-04-16 07:43 | -27.19843 | 152.83011 | 39986 ft | 497 kts | 164° |
| 2026-04-16 07:44 | -27.23006 | 152.84611 | 39928 ft | 497 kts | 164° |
| 2026-04-16 07:44 | -27.26140 | 152.86208 | 40060 ft | 494 kts | 164° |
| 2026-04-16 07:44 | -27.29278 | 152.87807 | 40214 ft | 491 kts | 164° |
| 2026-04-16 07:44 | -27.32377 | 152.89388 | 40368 ft | 488 kts | 164° |
| 2026-04-16 07:45 | -27.35455 | 152.90955 | 40444 ft | 487 kts | 164° |
| 2026-04-16 07:45 | -27.38592 | 152.92529 | 39699 ft | 500 kts | 165° |
| 2026-04-16 07:45 | -27.41823 | 152.94110 | 39197 ft | 507 kts | 165° |
| 2026-04-16 07:46 | -27.48257 | 152.97250 | 39327 ft | 503 kts | 165° |
| 2026-04-16 07:46 | -27.51500 | 152.98825 | 38413 ft | 517 kts | 166° |
| 2026-04-16 07:46 | -27.54786 | 153.00413 | 38304 ft | 516 kts | 166° |
| 2026-04-16 07:46 | -27.58085 | 153.02025 | 38440 ft | 508 kts | 164° |
| 2026-04-16 07:47 | -27.61235 | 153.03879 | 37451 ft | 526 kts | 149° |
| 2026-04-16 07:47 | -27.63740 | 153.06964 | 36654 ft | 547 kts | 126° |
| 2026-04-16 07:47 | -27.65200 | 153.10971 | 35345 ft | 571 kts | 97° |
| 2026-04-16 07:47 | -27.64957 | 153.15446 | 33679 ft | 583 kts | 69° |
| 2026-04-16 07:48 | -27.63029 | 153.19424 | 31673 ft | 585 kts | 42° |
| 2026-04-16 07:48 | -27.60027 | 153.22356 | 30556 ft | 565 kts | 22° |
| 2026-04-16 07:48 | -27.56538 | 153.23962 | 29985 ft | 530 kts | 1° |
| 2026-04-16 07:48 | -27.52990 | 153.23930 | 28707 ft | 502 kts | 336° |
| 2026-04-16 07:49 | -27.49983 | 153.22279 | 26991 ft | 489 kts | 315° |
| 2026-04-16 07:49 | -27.47744 | 153.19510 | 25760 ft | 474 kts | 296° |
| 2026-04-16 07:49 | -27.46544 | 153.16147 | 24572 ft | 468 kts | 279° |
| 2026-04-16 07:49 | -27.46546 | 153.12570 | 23775 ft | 460 kts | 258° |
| 2026-04-16 07:50 | -27.47368 | 153.09100 | 22911 ft | 460 kts | 254° |
| 2026-04-16 07:50 | -27.48269 | 153.05667 | 22076 ft | 459 kts | 253° |
| 2026-04-16 07:50 | -27.49226 | 153.02261 | 21336 ft | 457 kts | 252° |
| 2026-04-16 07:50 | -27.50245 | 152.98869 | 20650 ft | 454 kts | 251° |
| 2026-04-16 07:51 | -27.51304 | 152.95561 | 20018 ft | 452 kts | 250° |
| 2026-04-16 07:51 | -27.52422 | 152.92274 | 19387 ft | 450 kts | 249° |
| 2026-04-16 07:51 | -27.53589 | 152.89038 | 18744 ft | 448 kts | 248° |
| 2026-04-16 07:51 | -27.54809 | 152.85840 | 18154 ft | 446 kts | 246° |
| 2026-04-16 07:52 | -27.56081 | 152.82684 | 17545 ft | 444 kts | 245° |
| 2026-04-16 07:52 | -27.57408 | 152.79562 | 16971 ft | 443 kts | 244° |
| 2026-04-16 07:52 | -27.58810 | 152.76434 | 16407 ft | 441 kts | 243° |
| 2026-04-16 07:52 | -27.60427 | 152.73547 | 15836 ft | 442 kts | 231° |
| 2026-04-16 07:53 | -27.62671 | 152.71190 | 15269 ft | 444 kts | 216° |
| 2026-04-16 07:53 | -27.65494 | 152.69757 | 14740 ft | 448 kts | 195° |
| 2026-04-16 07:53 | -27.68626 | 152.69615 | 14240 ft | 453 kts | 173° |
| 2026-04-16 07:53 | -27.71566 | 152.70889 | 13749 ft | 457 kts | 144° |
| 2026-04-16 07:54 | -27.73652 | 152.73535 | 13356 ft | 456 kts | 120° |
| 2026-04-16 07:54 | -27.74636 | 152.76901 | 12869 ft | 456 kts | 96° |
| 2026-04-16 07:54 | -27.74979 | 152.80469 | 12407 ft | 453 kts | 94° |
| 2026-04-16 07:54 | -27.75226 | 152.83945 | 11999 ft | 449 kts | 92° |
| 2026-04-16 07:55 | -27.75388 | 152.87488 | 11594 ft | 446 kts | 91° |
| 2026-04-16 07:55 | -27.75357 | 152.90939 | 11178 ft | 443 kts | 83° |
| 2026-04-16 07:55 | -27.74682 | 152.94321 | 10724 ft | 440 kts | 67° |
| 2026-04-16 07:55 | -27.73402 | 152.97407 | 10328 ft | 436 kts | 60° |
| 2026-04-16 07:56 | -27.71611 | 153.00166 | 9868 ft | 431 kts | 41° |
| 2026-04-16 07:56 | -27.69185 | 153.02058 | 9417 ft | 426 kts | 25° |
| 2026-04-16 07:56 | -27.66465 | 153.03439 | 9048 ft | 418 kts | 17° |
| 2026-04-16 07:56 | -27.63718 | 153.04062 | 8068 ft | 407 kts | 359° |
| 2026-04-16 07:57 | -27.60902 | 153.04059 | 6795 ft | 402 kts | 356° |
| 2026-04-16 07:57 | -27.58189 | 153.03952 | 5864 ft | 381 kts | 354° |
| 2026-04-16 07:57 | -27.55584 | 153.03764 | 4210 ft | 378 kts | 356° |
| 2026-04-16 07:57 | -27.53053 | 153.03696 | 3323 ft | 352 kts | 2° |
| 2026-04-16 07:58 | -27.50740 | 153.04103 | 2842 ft | 322 kts | 21° |
| 2026-04-16 07:58 | -27.48885 | 153.05235 | 2754 ft | 284 kts | 38° |
| 2026-04-16 07:58 | -27.47537 | 153.06632 | 2763 ft | 251 kts | 45° |
| 2026-04-16 07:58 | -27.46401 | 153.07922 | 2511 ft | 206 kts | 38° |
| 2026-04-16 07:59 | -27.45390 | 153.08887 | 2125 ft | 188 kts | 32° |
| 2026-04-16 07:59 | -27.44346 | 153.09569 | 1897 ft | 158 kts | 20° |
| 2026-04-16 07:59 | -27.43346 | 153.10120 | 1385 ft | 154 kts | 21° |
| 2026-04-16 07:59 | -27.42392 | 153.10654 | 821 ft | 158 kts | 19° |
| 2026-04-16 08:00 | -27.41472 | 153.11142 | 676 ft | 135 kts | 21° |
| 2026-04-16 08:00 | -27.40667 | 153.11610 | 375 ft | 128 kts | 21° |
| 2026-04-16 08:00 | -27.39888 | 153.12051 | 92 ft | 117 kts | 21° |
| 2026-04-16 08:00 | -27.39221 | 153.12410 | 21 ft | 94 kts | 27° |
| 2026-04-16 08:01 | -27.38863 | 153.12604 | 21 ft | 30 kts | 14° |
| 2026-04-16 08:01 | -27.38654 | 153.12646 | 21 ft | 38 kts | 5° |
| 2026-04-16 08:01 | -27.38433 | 153.12636 | 21 ft | 24 kts | 349° |
| 2026-04-16 08:01 | -27.38323 | 153.12537 | 21 ft | 16 kts | 315° |
| 2026-04-16 08:02 | -27.38220 | 153.12526 | 21 ft | 15 kts | 24° |
| 2026-04-16 08:02 | -27.38048 | 153.12625 | 21 ft | 10 kts | 35° |
| 2026-04-16 08:02 | -27.38001 | 153.12657 | 21 ft | 7 kts | 24° |
| 2026-04-16 08:03 | -27.37944 | 153.12666 | 21 ft | 8 kts | 353° |
| 2026-04-16 08:03 | -27.37898 | 153.12617 | 21 ft | 10 kts | 306° |
| 2026-04-16 08:03 | -27.37855 | 153.12558 | 21 ft | 1 kts | 333° |
| 2026-04-16 08:03 | -27.37780 | 153.12497 | 21 ft | 27 kts | 301° |
| 2026-04-16 08:04 | -27.37704 | 153.12309 | 21 ft | 28 kts | 302° |
| 2026-04-16 08:04 | -27.37834 | 153.12283 | 21 ft | 27 kts | 184° |
| 2026-04-16 08:04 | -27.37989 | 153.12213 | 21 ft | 22 kts | 206° |
| 2026-04-16 08:04 | -27.38061 | 153.12151 | 21 ft | 6 kts | 175° |
| 2026-04-16 08:05 | -27.38103 | 153.12144 | 21 ft | 7 kts | 180° |
| 2026-04-16 08:05 | -27.38140 | 153.12196 | 21 ft | 12 kts | 115° |
| 2026-04-16 08:05 | -27.38183 | 153.12216 | 21 ft | 7 kts | 197° |
| 2026-04-16 08:05 | -27.38200 | 153.12205 | 21 ft | 0 kts | 209° |